Ana Sayfa
METAR-TAF:

METAR-TAF

Havaalanları :

Hamilton, Teksas, Amerika Birleşik Devletleri

Enlem: 31-39-57N, Boylam: 098-08-55W, yükseklik: 396 m

Güncel hava durumu gözlemi

Rapor saat 18:35 UTC de 24 dakika önce yapıldı.
Rüzgar güney/güneybatıdan 10 kt
Sıcaklık 24°C
Nem 94%
Basınç 1014 hPa
Görüş mesafesi: 16.1 km
Açık gökyüzü
hafif yağmur

METAR: KMNZ 151835Z AUTO 21010KT 10SM -RA CLR 24/23 A2993 RMK AO2 T02430231

Saat: 12:59 (18:59 UTC)


TAF: eksik

4.000'den fazla havaalanı için hava durumu gözlemleri ve tahminleri (METAR ve TAF raporları).

Kullanılabilir istasyonlar harita üzerinde sarı ve kırmızı noktalarla gösterilir.

İstasyonun adını görmek için fareyi noktanın üzerinde gezdirin.

Sonrasında hava gözlem ve tahminlerini görmek için tıklayın.

Haritayı değiştirmek için: yaklaştırmak için siyah artı işaretli yeşil düğmeye ve uzaklaştırmak için de eksi işaretli düğmeye hızla tıklayın; bitişik haritalar için yeşil okları kullanın.


METAR-TAF: